Time;durP1;ratioP1;P1;durP2;ratioP2;P2;SDS_P1;SDS_P2;PMS_P1;PMS_P2;Temp;Humidity;BMP_temperature;BMP_pressure;BME280_temperature;BME280_humidity;BME280_pressure;Samples;Min_cycle;Max_cycle;Signal;HPM_P1;HPM_P2
2022/01/15 00:00:46;;;;;;;61.58;37.17;;;;;;;3.64;80.83;101465.88;5015916;28;20398;-62
2022/01/15 00:03:12;;;;;;;59.38;33.80;;;;;;;3.65;81.00;101456.50;5000805;28;20054;-62
2022/01/15 00:05:38;;;;;;;57.53;33.20;;;;;;;3.64;80.77;101453.06;4979181;28;20031;-63
2022/01/15 00:08:04;;;;;;;66.38;36.75;;;;;;;3.66;80.81;101461.72;4979221;28;20445;-63
2022/01/15 00:10:30;;;;;;;56.78;32.58;;;;;;;3.65;80.88;101457.41;4995943;28;20034;-63
2022/01/15 00:12:59;;;;;;;62.20;36.72;;;;;;;3.65;81.10;101470.22;4996075;28;20045;-63
2022/01/15 00:15:35;;;;;;;57.15;33.05;;;;;;;3.65;80.62;101456.50;4962459;28;20038;-63
2022/01/15 00:18:06;;;;;;;60.33;34.95;;;;;;;3.63;80.56;101451.28;4963283;28;20406;-62
2022/01/15 00:20:32;;;;;;;61.83;34.83;;;;;;;3.65;80.46;101453.94;4962473;28;20034;-63
2022/01/15 00:22:59;;;;;;;55.47;33.00;;;;;;;3.65;80.96;101451.38;4962506;28;20034;-63
2022/01/15 00:25:26;;;;;;;61.08;35.00;;;;;;;3.64;80.74;101447.94;4962665;28;20497;-63
2022/01/15 00:27:52;;;;;;;58.58;32.80;;;;;;;3.65;80.72;101443.66;4962505;28;20045;-63
2022/01/15 00:30:19;;;;;;;60.97;35.72;;;;;;;3.64;80.98;101429.97;4962499;28;20090;-63
2022/01/15 00:32:45;;;;;;;61.10;35.22;;;;;;;3.63;81.30;101430.75;4978568;28;20034;-63
2022/01/15 00:35:13;;;;;;;58.35;35.38;;;;;;;3.64;81.02;101434.19;4962335;28;20045;-64
2022/01/15 00:37:39;;;;;;;57.20;31.70;;;;;;;3.62;80.80;101430.63;4962416;28;20117;-63
2022/01/15 00:40:08;;;;;;;62.13;35.33;;;;;;;3.63;80.27;101432.41;4978141;28;20379;-63
2022/01/15 00:42:36;;;;;;;62.00;35.90;;;;;;;3.62;80.58;101421.28;4978407;28;20027;-63
2022/01/15 00:45:04;;;;;;;64.80;35.25;;;;;;;3.63;80.53;101424.72;4995862;28;20045;-63
2022/01/15 00:47:31;;;;;;;61.25;32.40;;;;;;;3.63;80.95;101425.63;4995660;28;20038;-63
2022/01/15 00:49:58;;;;;;;70.28;37.30;;;;;;;3.63;80.66;101425.63;4978211;28;20046;-64
2022/01/15 00:52:24;;;;;;;65.85;36.03;;;;;;;3.63;81.44;101422.16;4962120;28;20433;-64
2022/01/15 00:54:49;;;;;;;69.40;33.97;;;;;;;3.63;80.73;101417.94;4995549;28;20038;-63
2022/01/15 00:57:15;;;;;;;61.13;33.25;;;;;;;3.62;81.25;101418.72;4995045;28;20526;-63
2022/01/15 00:59:40;;;;;;;68.57;35.35;;;;;;;3.63;80.65;101423.06;4978191;28;20367;-63
2022/01/15 01:02:06;;;;;;;67.05;35.58;;;;;;;3.63;80.50;101409.34;4995803;28;20049;-63
2022/01/15 01:04:31;;;;;;;70.63;35.80;;;;;;;3.62;81.13;101416.16;4962195;28;20045;-63
2022/01/15 01:06:57;;;;;;;61.67;33.25;;;;;;;3.63;80.78;101412.81;4978148;28;20481;-64
2022/01/15 01:09:26;;;;;;;64.55;34.42;;;;;;;3.62;80.48;101407.56;4995394;28;20488;-64
2022/01/15 01:11:57;;;;;;;62.60;33.38;;;;;;;3.63;80.99;101412.81;4994687;28;20035;-63
2022/01/15 01:20:06;;;;;;;59.35;32.80;;;;;;;3.61;80.61;101392.97;4994975;28;20080;-63
2022/01/15 01:25:12;;;;;;;60.83;33.55;;;;;;;3.61;80.36;101393.88;4977507;28;20037;-63
2022/01/15 01:27:48;;;;;;;59.42;32.42;;;;;;;3.62;80.60;101387.06;4994985;28;20034;-63
2022/01/15 01:30:28;;;;;;;64.85;36.28;;;;;;;3.61;80.80;101380.16;4995315;28;20038;-62
2022/01/15 01:33:40;;;;;;;66.35;35.85;;;;;;;3.62;81.12;101379.38;4994615;28;20066;-62
2022/01/15 01:35:46;;;;;;;68.15;33.78;;;;;;;3.62;80.80;101382.84;4986124;28;20105;-62
2022/01/15 01:38:26;;;;;;;62.85;33.45;;;;;;;3.63;81.01;101381.13;4994346;28;20038;-62
2022/01/15 01:40:51;;;;;;;63.85;33.35;;;;;;;3.62;80.83;101376.78;4961104;28;20042;-64
2022/01/15 01:45:54;;;;;;;61.28;34.53;;;;;;;3.62;81.43;101377.69;4977244;28;20126;-63
2022/01/15 01:48:19;;;;;;;;;;;;;;;3.60;80.93;101376.72;4961615;28;20424;-63
2022/01/15 01:50:44;;;;;;;58.58;31.73;;;;;;;3.60;80.93;101381.84;4994600;28;19914;-64
2022/01/15 01:53:10;;;;;;;61.33;32.83;;;;;;;3.61;80.83;101382.72;4994502;28;20034;-64
2022/01/15 01:55:36;;;;;;;52.72;32.25;;;;;;;3.61;80.85;101380.16;4994475;28;20459;-64
2022/01/15 01:58:02;;;;;;;61.40;33.72;;;;;;;3.59;80.81;101374.94;4994427;28;20053;-63
2022/01/15 02:00:30;;;;;;;64.22;35.13;;;;;;;3.60;81.10;101370.69;4960761;28;20387;-63
2022/01/15 02:02:57;;;;;;;60.75;32.80;;;;;;;3.59;80.88;101353.50;4960531;28;20061;-64
2022/01/15 02:05:24;;;;;;;61.15;34.10;;;;;;;3.59;81.10;101356.06;4960673;28;20030;-63
2022/01/15 02:07:49;;;;;;;69.07;35.22;;;;;;;3.58;81.10;101360.34;4960739;28;20044;-63
2022/01/15 02:10:18;;;;;;;61.13;33.35;;;;;;;3.58;81.17;101364.59;4977155;28;20046;-64
2022/01/15 02:12:46;;;;;;;63.22;34.03;;;;;;;3.58;80.92;101362.91;4961363;28;20045;-63
2022/01/15 02:15:14;;;;;;;70.57;33.70;;;;;;;3.59;81.20;101358.63;4960779;28;20128;-64
2022/01/15 02:17:40;;;;;;;61.92;33.40;;;;;;;3.57;80.95;101350.88;4960949;28;20490;-63
2022/01/15 02:25:50;;;;;;;61.92;33.50;;;;;;;3.58;80.93;101344.06;4994378;28;20046;-62
2022/01/15 02:28:17;;;;;;;55.28;30.10;;;;;;;3.58;80.84;101339.81;4976817;28;20549;-63
2022/01/15 02:30:43;;;;;;;61.28;33.33;;;;;;;3.59;80.71;101340.69;4976867;28;20117;-63
2022/01/15 02:33:09;;;;;;;60.70;33.90;;;;;;;3.58;81.19;101342.38;4993972;28;20185;-63
2022/01/15 02:35:35;;;;;;;64.72;33.97;;;;;;;3.59;80.84;101333.00;4976654;28;20065;-63
2022/01/15 02:38:05;;;;;;;61.47;33.10;;;;;;;3.58;80.91;101329.56;4960760;28;20046;-62
2022/01/15 02:40:35;;;;;;;61.45;33.47;;;;;;;3.58;81.01;101324.44;4976135;28;20038;-63
2022/01/15 02:43:06;;;;;;;56.53;31.85;;;;;;;3.58;80.73;101321.88;4960501;28;20413;-64
2022/01/15 02:45:34;;;;;;;56.67;31.63;;;;;;;3.57;80.85;101317.53;4976411;28;20030;-63
2022/01/15 02:48:13;;;;;;;62.08;32.50;;;;;;;3.58;81.10;101314.19;4976510;28;20042;-63
2022/01/15 02:50:40;;;;;;;60.00;34.85;;;;;;;3.57;81.03;101312.41;4960806;28;20049;-63
2022/01/15 02:53:07;;;;;;;59.45;33.00;;;;;;;3.58;80.86;101305.63;4960693;28;20038;-62
2022/01/15 02:55:33;;;;;;;61.25;31.98;;;;;;;3.57;80.83;101307.28;4960403;28;20070;-62
2022/01/15 02:57:58;;;;;;;62.45;34.30;;;;;;;3.58;80.84;101314.19;4993901;28;20481;-63
2022/01/15 03:00:28;;;;;;;58.80;32.72;;;;;;;3.58;81.03;101311.63;4994020;28;20486;-63
2022/01/15 03:02:53;;;;;;;55.97;31.10;;;;;;;3.59;80.85;101304.81;4960216;28;20046;-63
2022/01/15 03:05:22;;;;;;;57.47;30.70;;;;;;;3.57;80.71;101307.28;4976571;28;20129;-63
2022/01/15 03:07:47;;;;;;;59.30;31.77;;;;;;;3.56;81.11;101302.94;4994027;28;20060;-63
2022/01/15 03:10:13;;;;;;;59.05;31.98;;;;;;;3.57;80.63;101309.84;4976148;28;20465;-63
2022/01/15 03:12:38;;;;;;;57.17;32.60;;;;;;;3.57;81.67;101306.41;4993651;28;20030;-64
2022/01/15 03:15:06;;;;;;;55.97;32.20;;;;;;;3.57;80.67;101291.91;4993321;28;20038;-62
2022/01/15 03:17:32;;;;;;;59.35;30.42;;;;;;;3.58;80.80;101298.81;4994355;28;20092;-63
2022/01/15 03:19:59;;;;;;;59.13;31.88;;;;;;;3.57;81.67;101297.03;4993582;28;20030;-63
2022/01/15 03:22:24;;;;;;;59.05;30.33;;;;;;;3.57;81.02;101291.91;4962915;28;20065;-64
2022/01/15 03:24:50;;;;;;;53.53;28.95;;;;;;;3.57;81.04;101285.91;4997266;28;20034;-64
2022/01/15 03:27:16;;;;;;;61.15;31.48;;;;;;;3.56;80.96;101287.56;4979678;28;20065;-63
2022/01/15 03:29:43;;;;;;;52.25;29.30;;;;;;;3.57;80.86;101299.59;4979534;28;20093;-63
2022/01/15 03:32:08;;;;;;;56.67;30.15;;;;;;;3.55;80.88;101290.91;4979998;28;20045;-63
2022/01/15 03:34:34;;;;;;;57.42;30.75;;;;;;;3.56;81.00;101279.88;4996702;28;20038;-63
2022/01/15 03:37:00;;;;;;;57.90;29.20;;;;;;;3.54;80.99;101271.19;4996907;28;20058;-63
2022/01/15 03:39:27;;;;;;;55.50;30.10;;;;;;;3.54;81.01;101275.44;4997144;28;20061;-63
2022/01/15 03:41:52;;;;;;;58.30;30.08;;;;;;;3.55;80.71;101267.84;4963468;28;20117;-63
2022/01/15 03:44:18;;;;;;;55.58;29.10;;;;;;;3.52;81.22;101257.38;4996910;28;20496;-64
2022/01/15 03:46:43;;;;;;;53.50;28.83;;;;;;;3.52;81.42;101256.50;4979510;28;20031;-63
2022/01/15 03:49:09;;;;;;;55.67;29.38;;;;;;;3.52;81.29;101261.63;4996845;28;20034;-63
2022/01/15 03:51:34;;;;;;;61.45;30.48;;;;;;;3.52;81.17;101251.38;4996813;28;20037;-63
2022/01/15 03:54:00;;;;;;;58.17;28.80;;;;;;;3.53;81.51;101263.41;4996252;28;20096;-63
2022/01/15 03:56:25;;;;;;;50.80;28.17;;;;;;;3.52;81.11;101257.38;4996617;28;20137;-63
2022/01/15 03:58:50;;;;;;;60.13;29.60;;;;;;;3.52;81.57;101259.06;4996429;28;20045;-64
2022/01/15 04:01:16;;;;;;;59.67;30.13;;;;;;;3.53;81.53;101260.84;4978925;28;20469;-64
2022/01/15 04:03:41;;;;;;;55.33;29.02;;;;;;;3.53;81.22;101256.59;4979005;28;20141;-63
2022/01/15 04:06:07;;;;;;;52.92;28.55;;;;;;;3.54;81.51;101254.94;4978820;28;20117;-63
2022/01/15 04:08:32;;;;;;;59.05;30.45;;;;;;;3.54;81.63;101255.81;4996500;28;20038;-64
2022/01/15 04:10:58;;;;;;;54.55;30.95;;;;;;;3.54;81.44;101248.13;4996552;28;20034;-64
2022/01/15 04:13:23;;;;;;;58.35;29.95;;;;;;;3.52;81.28;101239.44;4996119;28;20402;-64
2022/01/15 04:15:52;;;;;;;53.22;30.30;;;;;;;3.54;81.10;101242.13;4978786;28;20124;-63
2022/01/15 04:18:18;;;;;;;51.50;27.38;;;;;;;3.54;81.05;101247.25;4978586;28;20046;-64
2022/01/15 04:20:44;;;;;;;54.40;27.17;;;;;;;3.54;80.82;101240.41;4996373;28;20039;-64
2022/01/15 04:23:09;;;;;;;56.90;29.92;;;;;;;3.55;80.77;101241.31;4996127;28;20040;-63
2022/01/15 04:25:34;;;;;;;51.42;29.10;;;;;;;3.56;80.97;101248.22;4996194;28;20034;-63
2022/01/15 04:28:02;;;;;;;56.83;28.88;;;;;;;3.54;81.03;101232.72;4996135;28;20110;-63
2022/01/15 04:30:28;;;;;;;55.78;28.63;;;;;;;3.54;80.86;101237.88;4996041;28;20039;-64
2022/01/15 04:32:53;;;;;;;51.35;26.73;;;;;;;3.53;81.28;101232.66;4995106;28;20401;-63
2022/01/15 04:35:19;;;;;;;46.08;25.60;;;;;;;3.53;80.80;101238.66;4995671;28;20498;-63
2022/01/15 04:37:48;;;;;;;45.25;25.58;;;;;;;3.50;81.29;101236.78;4978821;28;20049;-63
2022/01/15 04:40:16;;;;;;;48.15;26.50;;;;;;;3.52;81.32;101236.88;4978570;28;20169;-63
2022/01/15 04:42:41;;;;;;;50.47;28.10;;;;;;;3.52;81.11;101241.13;4978290;28;20039;-63
2022/01/15 04:45:07;;;;;;;45.45;26.73;;;;;;;3.52;80.93;101230.88;4978197;28;20030;-63
2022/01/15 04:47:35;;;;;;;44.22;24.77;;;;;;;3.51;81.46;101227.41;4995986;28;20124;-64
2022/01/15 04:50:01;;;;;;;45.63;25.70;;;;;;;3.52;81.29;101225.75;4978540;28;20061;-63
2022/01/15 04:52:27;;;;;;;49.58;27.75;;;;;;;3.52;81.29;101218.94;4962112;28;20438;-63
2022/01/15 04:54:53;;;;;;;48.67;24.70;;;;;;;3.52;81.47;101226.63;4995394;28;20034;-62
2022/01/15 04:57:19;;;;;;;45.10;25.27;;;;;;;3.52;80.98;101218.94;4995300;28;20050;-63
2022/01/15 04:59:45;;;;;;;44.67;25.58;;;;;;;3.52;81.41;101210.38;4995483;28;20093;-63
2022/01/15 05:02:10;;;;;;;45.53;25.15;;;;;;;3.52;81.05;101206.09;4995241;28;20048;-63
2022/01/15 05:04:38;;;;;;;47.20;25.90;;;;;;;3.51;80.94;101204.34;4995360;28;20038;-63
2022/01/15 05:07:04;;;;;;;43.55;25.17;;;;;;;3.52;81.45;101205.25;4995660;28;20065;-62
2022/01/15 05:09:29;;;;;;;37.15;22.67;;;;;;;3.51;81.49;101191.50;4995192;28;20030;-63
2022/01/15 05:12:42;;;;;;;39.17;22.95;;;;;;;3.51;80.85;101191.50;4978009;28;20422;-63
2022/01/15 05:14:40;;;;;;;40.38;24.95;;;;;;;3.50;81.62;101185.53;4984622;28;20045;-63
2022/01/15 05:17:06;;;;;;;39.67;23.02;;;;;;;3.51;81.30;101178.69;4977887;28;20042;-62
2022/01/15 05:19:31;;;;;;;38.83;25.05;;;;;;;3.51;81.60;101181.25;4977728;28;20030;-63
2022/01/15 05:21:57;;;;;;;35.13;23.40;;;;;;;3.50;81.46;101172.69;4995106;28;20185;-63
2022/01/15 05:24:26;;;;;;;37.78;22.77;;;;;;;3.50;81.20;101169.28;4995065;28;20091;-63
2022/01/15 05:26:54;;;;;;;37.97;23.58;;;;;;;3.49;81.06;101168.38;4961250;28;20034;-62
2022/01/15 05:29:19;;;;;;;37.35;23.70;;;;;;;3.50;81.34;101164.13;4961377;28;20042;-63
2022/01/15 05:31:45;;;;;;;37.88;22.88;;;;;;;3.48;81.19;101156.34;4977533;28;20490;-62
2022/01/15 05:34:10;;;;;;;35.85;24.98;;;;;;;3.49;80.85;101157.25;4994840;28;20402;-62
2022/01/15 05:36:36;;;;;;;34.17;20.88;;;;;;;3.49;81.36;101160.69;4994911;28;20509;-63
2022/01/15 05:39:02;;;;;;;33.90;21.75;;;;;;;3.49;81.17;101163.25;4961273;28;20041;-63
2022/01/15 05:41:28;;;;;;;29.58;19.63;;;;;;;3.49;81.13;101167.50;4977418;28;20034;-62
2022/01/15 05:43:53;;;;;;;32.17;20.55;;;;;;;3.48;81.10;101163.16;4977178;28;20494;-62
2022/01/15 05:46:19;;;;;;;34.58;22.80;;;;;;;3.48;81.37;101160.59;4994868;28;20030;-62
2022/01/15 05:48:44;;;;;;;32.60;21.95;;;;;;;3.48;80.73;101155.47;4994915;28;20147;-62
2022/01/15 05:51:10;;;;;;;31.50;20.55;;;;;;;3.48;80.89;101158.03;4977206;28;20490;-62
2022/01/15 05:53:35;;;;;;;28.30;20.45;;;;;;;3.48;81.00;101148.66;4994102;28;20070;-62
2022/01/15 05:56:01;;;;;;;29.88;21.55;;;;;;;3.49;80.78;101147.00;4994522;28;20077;-62
2022/01/15 05:58:26;;;;;;;30.52;19.75;;;;;;;3.47;80.64;101140.88;4977255;28;20486;-62
2022/01/15 06:00:52;;;;;;;34.80;22.13;;;;;;;3.48;81.50;101140.09;4994133;28;20117;-63
2022/01/15 06:03:17;;;;;;;28.65;20.42;;;;;;;3.47;81.34;101151.13;4994650;28;20494;-62
2022/01/15 06:05:43;;;;;;;28.17;20.33;;;;;;;3.47;81.57;101152.00;4993959;28;20034;-63
2022/01/15 06:08:10;;;;;;;31.60;22.05;;;;;;;3.47;80.50;101154.56;4976927;28;20533;-63
2022/01/15 06:10:36;;;;;;;31.00;21.02;;;;;;;3.47;80.97;101148.56;4960734;28;20046;-62
2022/01/15 06:13:02;;;;;;;28.65;18.60;;;;;;;3.46;81.02;101152.78;4961135;28;20125;-62
2022/01/15 06:15:27;;;;;;;32.17;21.10;;;;;;;3.46;81.11;101147.66;4977137;28;20117;-63
2022/01/15 06:17:53;;;;;;;27.02;19.40;;;;;;;3.45;81.36;101145.88;4976769;28;20112;-63
2022/01/15 06:20:18;;;;;;;26.45;18.48;;;;;;;3.45;81.09;101147.56;4994215;28;20073;-63
2022/01/15 06:22:44;;;;;;;29.33;19.48;;;;;;;3.45;81.10;101142.44;4976859;28;20125;-63
2022/01/15 06:25:10;;;;;;;26.13;18.42;;;;;;;3.45;81.38;101139.88;4993965;28;20090;-63
2022/01/15 06:27:36;;;;;;;26.42;19.23;;;;;;;3.44;81.21;101141.53;4993834;28;20045;-64
2022/01/15 06:30:03;;;;;;;28.08;20.67;;;;;;;3.43;81.32;101142.34;4961190;28;20043;-63
2022/01/15 06:32:35;;;;;;;27.73;19.83;;;;;;;3.41;81.05;101136.25;4960485;28;20112;-63
2022/01/15 06:35:01;;;;;;;26.95;18.75;;;;;;;3.40;80.76;101128.44;4993632;28;20118;-63
2022/01/15 06:37:27;;;;;;;27.23;19.65;;;;;;;3.40;81.03;101139.59;4960512;28;20125;-64
2022/01/15 06:39:52;;;;;;;24.42;18.58;;;;;;;3.41;81.26;101132.78;4994009;28;20030;-64
2022/01/15 06:42:18;;;;;;;26.20;18.75;;;;;;;3.41;80.90;101130.22;4976237;28;20042;-64
2022/01/15 06:44:43;;;;;;;26.48;19.10;;;;;;;3.41;80.73;101130.22;4993626;28;20037;-63
2022/01/15 06:47:09;;;;;;;26.38;17.90;;;;;;;3.41;81.20;101127.66;4994249;28;20034;-64
2022/01/15 06:49:34;;;;;;;25.15;17.40;;;;;;;3.41;81.13;101130.22;4976559;28;20042;-63
2022/01/15 06:52:00;;;;;;;24.77;18.00;;;;;;;3.41;80.83;101127.66;4994174;28;20031;-64
2022/01/15 06:54:25;;;;;;;24.65;18.33;;;;;;;3.41;81.29;101131.13;4993856;28;20062;-63
2022/01/15 06:56:51;;;;;;;25.58;18.00;;;;;;;3.41;81.08;101135.34;4995869;28;20038;-63
2022/01/15 06:59:16;;;;;;;26.17;17.77;;;;;;;3.40;80.61;101124.22;4997742;28;20045;-64
2022/01/15 07:01:41;;;;;;;23.38;17.58;;;;;;;3.40;80.74;101124.22;4979962;28;20050;-63
2022/01/15 07:04:07;;;;;;;24.33;18.13;;;;;;;3.40;80.99;101128.44;4980388;28;20096;-64
2022/01/15 07:06:32;;;;;;;25.70;18.42;;;;;;;3.40;80.85;101128.44;4997760;28;20037;-63
2022/01/15 07:08:58;;;;;;;23.13;16.88;;;;;;;3.41;80.77;101132.78;4997404;28;20154;-63
2022/01/15 07:11:23;;;;;;;25.85;17.90;;;;;;;3.40;80.99;101131.00;4997486;28;20042;-64
2022/01/15 07:13:49;;;;;;;21.13;16.33;;;;;;;3.41;81.08;101133.69;4980014;28;20485;-63
2022/01/15 07:16:14;;;;;;;26.90;18.42;;;;;;;3.41;80.97;101140.47;4997138;28;20038;-64
2022/01/15 07:18:39;;;;;;;24.40;17.23;;;;;;;3.40;80.99;101138.69;4979863;28;20085;-63
2022/01/15 07:21:05;;;;;;;22.70;16.25;;;;;;;3.39;81.09;101139.50;4997525;28;20458;-63
2022/01/15 07:23:30;;;;;;;22.95;16.35;;;;;;;3.40;80.77;101142.16;4997286;28;20541;-64
2022/01/15 07:25:56;;;;;;;22.33;15.88;;;;;;;3.39;80.85;101150.66;4979626;28;20125;-64
2022/01/15 07:28:23;;;;;;;24.40;16.15;;;;;;;3.40;80.90;101151.53;4996967;28;20114;-63
2022/01/15 07:30:48;;;;;;;26.90;18.13;;;;;;;3.40;80.81;101148.94;4979957;28;20097;-63
2022/01/15 07:33:14;;;;;;;24.17;17.75;;;;;;;3.40;81.00;101148.94;4963455;28;20031;-63
2022/01/15 07:35:43;;;;;;;23.92;17.13;;;;;;;3.40;80.74;101148.94;4997171;28;20034;-64
2022/01/15 07:38:08;;;;;;;23.10;17.00;;;;;;;3.38;80.94;101141.19;4996889;28;20034;-63
2022/01/15 07:40:34;;;;;;;24.00;16.90;;;;;;;3.37;80.89;101144.53;4996793;28;20038;-63
2022/01/15 07:42:59;;;;;;;26.13;17.73;;;;;;;3.37;80.78;101141.97;4997421;28;20110;-64
2022/01/15 07:45:25;;;;;;;23.73;16.42;;;;;;;3.38;80.81;101137.72;4997154;28;20129;-63
2022/01/15 07:47:50;;;;;;;24.25;17.40;;;;;;;3.38;81.05;101137.72;4963620;28;20482;-64
2022/01/15 07:50:23;;;;;;;24.42;17.38;;;;;;;3.37;80.63;101143.63;4996994;28;20100;-63
2022/01/15 07:52:50;;;;;;;25.45;17.50;;;;;;;3.37;81.30;101139.41;4963215;28;20155;-63
2022/01/15 07:55:16;;;;;;;26.63;18.50;;;;;;;3.37;80.96;101138.50;4963018;28;20034;-63
2022/01/15 07:57:43;;;;;;;23.70;16.40;;;;;;;3.37;80.96;101138.50;4996417;28;20038;-63
2022/01/15 08:00:14;;;;;;;25.40;16.73;;;;;;;3.35;80.58;101141.84;4979287;28;20042;-63
2022/01/15 08:02:39;;;;;;;24.35;16.00;;;;;;;3.37;80.93;101138.50;4978856;28;20050;-63
2022/01/15 08:05:06;;;;;;;21.02;14.90;;;;;;;3.37;80.52;101143.63;4996961;28;20040;-63
2022/01/15 08:07:31;;;;;;;22.23;15.55;;;;;;;3.36;81.13;101140.19;4996359;28;20093;-63
2022/01/15 08:09:56;;;;;;;20.30;15.07;;;;;;;3.36;80.99;101129.94;4996406;28;20038;-64
2022/01/15 08:12:22;;;;;;;24.10;16.60;;;;;;;3.35;80.90;101136.72;4979099;28;20117;-64
2022/01/15 08:14:49;;;;;;;22.48;15.10;;;;;;;3.35;80.89;101129.03;4995964;28;20026;-63
2022/01/15 08:17:15;;;;;;;22.10;16.50;;;;;;;3.35;80.32;101125.59;4962708;28;20041;-64
2022/01/15 08:19:41;;;;;;;21.35;15.90;;;;;;;3.34;80.40;101119.63;4995900;28;20037;-63
2022/01/15 08:22:06;;;;;;;21.50;14.57;;;;;;;3.35;81.05;101118.78;4996156;28;20042;-63
2022/01/15 08:24:32;;;;;;;21.10;15.80;;;;;;;3.35;81.20;101117.91;4978254;28;20089;-62
2022/01/15 08:26:57;;;;;;;20.67;15.15;;;;;;;3.36;80.80;101117.13;4996657;28;20038;-64
2022/01/15 08:29:22;;;;;;;21.42;15.15;;;;;;;3.33;80.58;101117.84;4996110;28;20038;-62
2022/01/15 08:31:48;;;;;;;21.33;15.32;;;;;;;3.33;80.84;101116.94;4978904;28;20042;-62
2022/01/15 08:34:13;;;;;;;21.42;15.23;;;;;;;3.33;80.77;101107.59;4996005;28;20038;-63
2022/01/15 08:36:39;;;;;;;20.58;15.75;;;;;;;3.31;80.88;101103.13;4978699;28;20046;-62
2022/01/15 08:39:06;;;;;;;18.95;15.13;;;;;;;3.31;80.81;101108.25;4978708;28;20406;-62
2022/01/15 08:41:31;;;;;;;19.85;14.82;;;;;;;3.30;80.91;101107.38;4962820;28;20038;-63
2022/01/15 08:43:57;;;;;;;20.80;14.65;;;;;;;3.31;80.76;101104.03;4995699;28;20375;-63
2022/01/15 08:46:23;;;;;;;18.25;13.88;;;;;;;3.31;80.79;101105.69;4995742;28;20038;-63
2022/01/15 08:48:49;;;;;;;18.60;13.48;;;;;;;3.31;81.31;101111.72;4962513;28;20062;-63
2022/01/15 08:51:15;;;;;;;16.52;12.80;;;;;;;3.32;80.45;101108.38;4962270;28;20049;-63
2022/01/15 08:53:41;;;;;;;18.58;12.88;;;;;;;3.31;80.88;101106.59;4995101;28;20030;-64
2022/01/15 08:56:07;;;;;;;18.02;14.30;;;;;;;3.31;80.89;101101.47;4978287;28;20039;-63
2022/01/15 08:58:32;;;;;;;19.52;14.98;;;;;;;3.32;80.80;101104.91;4962061;28;20490;-63
2022/01/15 09:00:58;;;;;;;17.10;13.35;;;;;;;3.31;81.09;101111.72;4995267;28;20049;-63
2022/01/15 09:03:24;;;;;;;18.63;13.80;;;;;;;3.32;80.95;101116.06;4995590;28;20054;-63
2022/01/15 09:05:50;;;;;;;20.20;13.98;;;;;;;3.32;80.87;101121.19;4961759;28;20038;-63
2022/01/15 09:08:18;;;;;;;17.98;14.02;;;;;;;3.32;80.90;101115.16;4961672;28;20141;-63
2022/01/15 09:10:44;;;;;;;17.08;12.27;;;;;;;3.33;80.74;101116.94;4995315;28;20038;-62
2022/01/15 09:13:10;;;;;;;15.20;12.20;;;;;;;3.33;81.06;101122.97;4977585;28;20097;-63
2022/01/15 09:15:36;;;;;;;16.30;12.65;;;;;;;3.32;81.14;101116.06;4995351;28;20076;-62
2022/01/15 09:18:05;;;;;;;14.52;11.43;;;;;;;3.32;80.89;101121.19;4961921;28;20046;-63
2022/01/15 09:20:30;;;;;;;16.92;12.25;;;;;;;3.33;80.93;101119.50;4977281;28;20042;-62
2022/01/15 09:22:56;;;;;;;15.18;12.57;;;;;;;3.32;80.49;101118.63;4961452;28;20042;-65
2022/01/15 09:25:22;;;;;;;15.25;11.60;;;;;;;3.33;80.55;101116.94;4961573;28;20552;-63
2022/01/15 09:30:32;;;;;;;15.85;12.27;;;;;;;3.33;80.58;101109.25;4995079;28;20043;-63
2022/01/15 09:32:58;;;;;;;13.80;12.30;;;;;;;3.32;81.10;101108.38;4994861;28;20041;-62
2022/01/15 09:35:27;;;;;;;15.82;11.98;;;;;;;3.32;80.48;101110.03;4994718;28;20072;-62
2022/01/15 09:37:53;;;;;;;16.55;12.27;;;;;;;3.31;80.54;101106.59;4977473;28;20038;-62
2022/01/15 09:40:22;;;;;;;15.20;11.85;;;;;;;3.33;80.31;101099.00;4977731;28;20046;-63
2022/01/15 09:42:49;;;;;;;14.15;11.20;;;;;;;3.32;80.89;101097.22;4961425;28;20034;-62
2022/01/15 09:45:17;;;;;;;13.60;11.75;;;;;;;3.32;80.79;101094.66;4994723;28;20042;-63
2022/01/15 09:47:43;;;;;;;13.73;11.43;;;;;;;3.31;81.21;101088.66;4977184;28;20034;-62
2022/01/15 09:50:13;;;;;;;15.60;12.43;;;;;;;3.31;80.95;101086.09;4960886;28;20043;-62
2022/01/15 09:52:41;;;;;;;15.05;11.55;;;;;;;3.32;80.49;101086.97;4994367;28;20038;-63
2022/01/15 09:55:12;;;;;;;15.32;11.02;;;;;;;3.31;80.31;101091.22;4961341;28;20137;-63
2022/01/15 09:57:38;;;;;;;19.13;14.35;;;;;;;3.30;80.87;101094.56;4994876;28;20038;-63
2022/01/15 10:00:07;;;;;;;16.88;12.05;;;;;;;3.31;80.78;101093.78;4994624;28;20041;-62
2022/01/15 10:02:34;;;;;;;16.73;12.75;;;;;;;3.30;80.29;101081.75;4976976;28;20042;-63
2022/01/15 10:05:00;;;;;;;14.73;10.70;;;;;;;3.31;80.33;101082.63;4977097;28;20040;-62
2022/01/15 10:07:27;;;;;;;16.50;12.65;;;;;;;3.28;81.17;101083.34;4994194;28;20125;-62
2022/01/15 10:09:54;;;;;;;14.43;11.90;;;;;;;3.29;81.01;101085.13;4994372;28;20043;-62
2022/01/15 10:12:31;;;;;;;16.65;12.40;;;;;;;3.30;80.33;101092.00;4994198;28;20042;-63
2022/01/15 10:15:06;;;;;;;14.60;11.45;;;;;;;3.30;80.65;101089.44;4994234;28;20129;-63
2022/01/15 10:17:35;;;;;;;16.08;11.00;;;;;;;3.31;80.81;101096.34;4993964;28;20178;-62
2022/01/15 10:20:08;;;;;;;15.60;11.45;;;;;;;3.31;80.68;101092.88;4961387;28;20138;-63
2022/01/15 10:22:39;;;;;;;13.77;11.00;;;;;;;3.29;80.89;101090.25;4976706;28;20556;-62
2022/01/15 10:25:11;;;;;;;14.32;11.07;;;;;;;3.31;80.99;101090.31;4994230;28;20096;-63
2022/01/15 10:27:44;;;;;;;16.02;11.25;;;;;;;3.30;80.24;101086.88;4961089;28;20053;-63
2022/01/15 10:30:42;;;;;;;16.98;13.55;;;;;;;3.29;80.45;101082.56;4959792;28;20038;-62
2022/01/15 10:33:09;;;;;;;17.08;11.88;;;;;;;3.30;80.70;101086.88;4986099;28;20100;-63
2022/01/15 10:35:37;;;;;;;15.15;11.65;;;;;;;3.32;80.25;101086.97;4960435;28;20041;-63
2022/01/15 10:38:04;;;;;;;16.52;10.90;;;;;;;3.34;80.85;101085.41;4976686;28;20057;-63
2022/01/15 10:40:50;;;;;;;14.65;11.45;;;;;;;3.33;81.04;101074.28;4976372;28;20482;-63
2022/01/15 10:43:18;;;;;;;15.07;11.52;;;;;;;3.34;80.64;101073.47;4976785;28;20116;-63
2022/01/15 10:45:52;;;;;;;17.27;11.65;;;;;;;3.35;80.73;101072.66;4960832;28;20044;-62
2022/01/15 10:48:26;;;;;;;15.98;11.10;;;;;;;3.35;80.81;101062.41;4960599;28;20042;-62
2022/01/15 10:51:13;;;;;;;16.75;11.40;;;;;;;3.35;80.64;101061.53;4993967;28;20042;-63
2022/01/15 10:53:39;;;;;;;16.05;11.52;;;;;;;3.33;80.97;101065.69;4976632;28;20038;-63
2022/01/15 10:56:08;;;;;;;13.85;10.80;;;;;;;3.32;81.13;101072.50;4994037;28;20038;-63
2022/01/15 10:58:35;;;;;;;15.57;12.02;;;;;;;3.33;80.91;101058.91;4960480;28;20039;-63
2022/01/15 11:01:00;;;;;;;15.82;11.98;;;;;;;3.34;80.80;101058.09;4976248;28;20038;-62
2022/01/15 11:03:37;;;;;;;15.85;12.00;;;;;;;3.37;80.81;101056.50;4976378;28;20410;-62
2022/01/15 11:06:05;;;;;;;19.80;12.05;;;;;;;3.38;81.06;101048.91;4976410;28;20034;-63
2022/01/15 11:08:34;;;;;;;15.68;12.10;;;;;;;3.38;80.41;101042.91;4976729;28;20057;-63
2022/01/15 11:11:04;;;;;;;14.73;11.57;;;;;;;3.41;80.38;101040.53;4960316;28;20046;-63
2022/01/15 11:13:39;;;;;;;16.10;11.63;;;;;;;3.42;80.36;101039.72;4976333;28;20031;-63
2022/01/15 11:16:08;;;;;;;14.65;11.00;;;;;;;3.43;80.85;101038.94;4960092;28;20042;-63
2022/01/15 11:18:39;;;;;;;16.10;11.70;;;;;;;3.43;80.79;101037.25;4960368;28;20035;-64
2022/01/15 11:21:07;;;;;;;15.60;11.73;;;;;;;3.45;81.13;101039.94;4959905;28;20038;-63
2022/01/15 11:23:34;;;;;;;17.02;11.57;;;;;;;3.46;80.54;101044.25;4976420;28;20037;-63
2022/01/15 11:26:02;;;;;;;17.30;13.10;;;;;;;3.47;80.75;101039.22;4960139;28;20121;-62
2022/01/15 11:28:30;;;;;;;16.60;12.95;;;;;;;3.48;80.41;101027.31;4960044;28;20038;-62
2022/01/15 11:31:02;;;;;;;17.20;11.45;;;;;;;3.48;80.83;101030.75;4960295;28;20569;-62
2022/01/15 11:33:31;;;;;;;16.45;12.07;;;;;;;3.48;81.00;101025.59;4960241;28;20053;-63
2022/01/15 11:35:57;;;;;;;18.77;13.48;;;;;;;3.51;80.86;101024.91;4959840;28;20507;-62